createdAt,value
2023-05-03T00:01:47.897Z,8.07
2023-05-03T00:04:18.541Z,5.37
2023-05-03T00:06:49.382Z,6.90
2023-05-03T00:09:18.351Z,4.70
2023-05-03T00:11:48.519Z,4.37
2023-05-03T00:14:18.671Z,4.83
2023-05-03T00:16:49.119Z,5.43
2023-05-03T00:19:31.424Z,8.80
2023-05-03T00:22:02.615Z,5.80
2023-05-03T00:24:31.597Z,4.63
2023-05-03T00:27:02.797Z,5.03
2023-05-03T00:29:34.640Z,5.13
2023-05-03T00:32:04.548Z,5.90
2023-05-03T00:34:34.129Z,7.00
2023-05-03T00:37:04.219Z,7.80
2023-05-03T00:39:33.463Z,11.83
2023-05-03T00:42:04.699Z,7.00
2023-05-03T00:44:34.584Z,6.97
2023-05-03T00:47:04.775Z,7.00
2023-05-03T00:49:35.576Z,6.90
2023-05-03T00:52:04.699Z,7.20
2023-05-03T00:54:35.459Z,6.37
2023-05-03T00:57:06.908Z,6.60
2023-05-03T00:59:37.417Z,6.90
2023-05-03T01:02:05.835Z,6.03
2023-05-03T01:04:34.771Z,8.90
2023-05-03T01:07:15.322Z,12.37
2023-05-03T01:09:56.140Z,7.53
2023-05-03T01:12:38.355Z,10.40
2023-05-03T01:15:22.410Z,6.40
2023-05-03T01:17:57.429Z,9.60
2023-05-03T01:20:28.814Z,8.03
2023-05-03T01:23:07.228Z,9.60
2023-05-03T01:25:37.621Z,10.23
2023-05-03T01:28:06.062Z,9.20
2023-05-03T01:30:36.236Z,6.90
2023-05-03T01:33:13.247Z,8.40
2023-05-03T01:35:45.416Z,8.20
2023-05-03T01:38:14.877Z,11.00
2023-05-03T01:40:52.956Z,10.30
2023-05-03T01:43:24.636Z,6.20
2023-05-03T01:45:53.901Z,7.50
2023-05-03T01:48:25.155Z,10.27
2023-05-03T01:50:54.571Z,10.03
2023-05-03T01:53:23.178Z,7.47
2023-05-03T01:55:53.693Z,6.37
2023-05-03T01:58:22.552Z,8.33
2023-05-03T02:00:51.533Z,12.70
2023-05-03T02:03:20.917Z,7.00
2023-05-03T02:05:49.981Z,6.60
2023-05-03T02:08:19.438Z,7.73
2023-05-03T02:10:49.954Z,6.33
2023-05-03T02:13:20.087Z,9.50
2023-05-03T02:15:49.031Z,6.73
2023-05-03T02:18:18.798Z,10.30
2023-05-03T02:20:48.270Z,8.60
2023-05-03T02:23:17.014Z,6.70
2023-05-03T02:25:45.464Z,5.80
2023-05-03T02:28:14.516Z,6.13
2023-05-03T02:30:45.112Z,6.97
2023-05-03T02:33:13.914Z,9.93
2023-05-03T02:35:42.812Z,7.20
2023-05-03T02:38:11.094Z,5.70
2023-05-03T02:40:39.818Z,8.07
2023-05-03T02:43:08.271Z,6.47
2023-05-03T02:45:37.659Z,8.90
2023-05-03T02:48:08.456Z,8.00
2023-05-03T02:50:37.248Z,10.30
2023-05-03T02:53:06.277Z,7.17
2023-05-03T02:55:37.035Z,8.43
2023-05-03T02:58:06.215Z,8.03
2023-05-03T03:00:35.005Z,9.10
2023-05-03T03:03:06.887Z,9.00
2023-05-03T03:05:35.719Z,8.73
2023-05-03T03:08:04.933Z,8.73
2023-05-03T03:10:34.971Z,9.63
2023-05-03T03:13:06.105Z,8.50
2023-05-03T03:15:39.763Z,9.63
2023-05-03T03:18:09.507Z,8.10
2023-05-03T03:20:37.978Z,8.83
2023-05-03T03:23:07.224Z,7.60
2023-05-03T03:25:36.252Z,7.60
2023-05-03T03:28:05.941Z,6.43
2023-05-03T03:30:34.878Z,7.90
2023-05-03T03:33:15.941Z,8.13
2023-05-03T03:35:45.308Z,6.70
2023-05-03T03:38:15.521Z,6.93
2023-05-03T03:40:53.276Z,8.07
2023-05-03T03:43:23.433Z,8.67
2023-05-03T03:45:52.094Z,6.80
2023-05-03T03:48:22.422Z,18.37
2023-05-03T03:50:52.122Z,8.27
2023-05-03T03:53:24.783Z,7.50
2023-05-03T03:55:56.777Z,6.60
2023-05-03T03:58:26.800Z,8.50
2023-05-03T04:00:56.964Z,7.10
2023-05-03T04:03:29.178Z,10.73
2023-05-03T04:05:59.405Z,11.03
2023-05-03T04:08:29.829Z,14.60
2023-05-03T04:10:58.437Z,11.03
2023-05-03T04:13:28.223Z,8.37
2023-05-03T04:15:59.354Z,8.40
2023-05-03T04:18:29.881Z,9.87
2023-05-03T04:21:01.327Z,6.50
2023-05-03T04:23:30.450Z,8.00
2023-05-03T04:25:59.062Z,7.57
2023-05-03T04:28:29.747Z,7.20
2023-05-03T04:30:59.061Z,6.83
2023-05-03T04:33:31.401Z,7.50
2023-05-03T04:36:04.508Z,10.20
2023-05-03T04:38:34.239Z,8.93
2023-05-03T04:41:05.272Z,7.70
2023-05-03T04:43:37.778Z,12.10
2023-05-03T04:46:08.319Z,10.30
2023-05-03T04:48:38.843Z,7.20
2023-05-03T04:51:10.534Z,8.63
2023-05-03T04:53:40.318Z,7.83
2023-05-03T04:56:17.224Z,10.03
2023-05-03T04:58:47.158Z,11.87
2023-05-03T05:01:26.634Z,9.57
2023-05-03T05:03:59.542Z,12.50
2023-05-03T05:06:35.981Z,12.30
2023-05-03T05:09:07.712Z,7.70
2023-05-03T05:11:37.107Z,10.47
2023-05-03T05:14:05.474Z,10.40
2023-05-03T05:16:35.017Z,11.20
2023-05-03T05:19:06.258Z,14.33
2023-05-03T05:21:38.048Z,14.93
2023-05-03T05:24:08.021Z,14.23
2023-05-03T05:26:40.360Z,12.47
2023-05-03T05:29:09.093Z,16.80
2023-05-03T05:31:40.221Z,15.10
2023-05-03T05:34:13.525Z,13.90
2023-05-03T05:36:42.616Z,12.50
2023-05-03T05:39:11.960Z,15.43
2023-05-03T05:41:41.941Z,15.47
2023-05-03T05:44:13.515Z,16.27
2023-05-03T05:46:43.360Z,15.90
2023-05-03T05:49:14.634Z,14.10
2023-05-03T05:51:45.249Z,16.47
2023-05-03T05:54:15.556Z,12.43
2023-05-03T05:56:44.645Z,14.63
2023-05-03T05:59:14.634Z,13.77
2023-05-03T06:01:46.509Z,15.23
2023-05-03T06:04:21.573Z,15.93
2023-05-03T06:06:51.255Z,13.23
2023-05-03T06:09:24.588Z,14.57
2023-05-03T06:11:57.224Z,16.30
2023-05-03T06:14:29.691Z,12.13
2023-05-03T06:16:58.661Z,15.70
2023-05-03T06:19:29.547Z,14.33
2023-05-03T06:21:58.581Z,18.70
2023-05-03T06:24:31.690Z,14.50
2023-05-03T06:27:03.112Z,13.03
2023-05-03T06:29:32.877Z,13.80
2023-05-03T06:32:02.097Z,13.30
2023-05-03T06:34:32.943Z,15.10
2023-05-03T06:37:02.974Z,12.90
2023-05-03T06:39:31.535Z,13.10
2023-05-03T06:42:00.781Z,14.57
2023-05-03T06:44:37.122Z,12.50
2023-05-03T06:47:08.190Z,14.27
2023-05-03T06:49:39.040Z,17.87
2023-05-03T06:52:10.933Z,14.20
2023-05-03T06:54:42.330Z,11.37
2023-05-03T06:57:12.709Z,13.53
2023-05-03T06:59:43.909Z,13.37
2023-05-03T07:02:17.250Z,16.97
2023-05-03T07:04:48.213Z,15.63
2023-05-03T07:07:16.946Z,15.87
2023-05-03T07:09:45.962Z,10.37
2023-05-03T07:12:14.788Z,12.77
2023-05-03T07:14:47.656Z,12.90
2023-05-03T07:17:16.429Z,12.40
2023-05-03T07:19:45.849Z,14.10
2023-05-03T07:22:16.415Z,14.63
2023-05-03T07:24:46.943Z,13.73
2023-05-03T07:27:17.544Z,9.93
2023-05-03T07:29:46.459Z,10.27
2023-05-03T07:32:15.368Z,16.87
2023-05-03T07:34:44.250Z,12.27
2023-05-03T07:37:15.071Z,12.83
2023-05-03T07:39:46.559Z,12.40
2023-05-03T07:42:16.952Z,12.43
2023-05-03T07:44:46.599Z,10.50
2023-05-03T07:47:15.680Z,11.10
2023-05-03T07:49:44.346Z,12.13
2023-05-03T07:52:14.950Z,13.13
2023-05-03T07:54:45.863Z,10.57
2023-05-03T07:57:16.656Z,9.10
2023-05-03T07:59:45.623Z,10.13
2023-05-03T08:02:16.477Z,9.90
2023-05-03T08:04:45.518Z,8.33
2023-05-03T08:07:14.237Z,10.10
2023-05-03T08:09:44.848Z,9.40
2023-05-03T08:12:14.854Z,8.90
2023-05-03T08:14:44.026Z,11.53
2023-05-03T08:17:12.920Z,8.40
2023-05-03T08:19:41.861Z,8.43
2023-05-03T08:22:12.949Z,8.27
2023-05-03T08:24:44.467Z,7.27
2023-05-03T08:27:13.685Z,8.20
2023-05-03T08:29:44.926Z,9.10
2023-05-03T08:32:13.898Z,9.20
2023-05-03T08:34:45.550Z,9.37
2023-05-03T08:37:14.959Z,9.53
2023-05-03T08:39:47.528Z,8.77
2023-05-03T08:42:16.168Z,7.17
2023-05-03T08:44:49.504Z,14.27
2023-05-03T08:47:19.191Z,6.33
2023-05-03T08:49:48.753Z,8.87
2023-05-03T08:52:18.321Z,8.60
2023-05-03T08:54:51.000Z,8.50
2023-05-03T08:57:21.600Z,7.20
2023-05-03T08:59:50.990Z,8.23
2023-05-03T09:02:19.687Z,5.70
2023-05-03T09:04:48.648Z,6.27
2023-05-03T09:07:17.383Z,8.33
2023-05-03T09:09:47.649Z,8.13
2023-05-03T09:12:36.615Z,6.90
2023-05-03T09:15:07.147Z,4.80
2023-05-03T09:17:35.805Z,4.57
2023-05-03T09:20:05.243Z,7.87
2023-05-03T09:22:34.943Z,8.53
2023-05-03T09:25:05.541Z,7.37
2023-05-03T09:27:34.261Z,5.23
2023-05-03T09:30:20.844Z,6.60
2023-05-03T09:32:50.406Z,7.50
2023-05-03T09:35:18.656Z,5.53
2023-05-03T09:37:47.984Z,6.13
2023-05-03T09:40:19.795Z,5.50
2023-05-03T09:43:10.711Z,4.27
2023-05-03T09:45:40.754Z,5.87
2023-05-03T09:48:09.969Z,7.07
2023-05-03T09:50:39.003Z,5.83
2023-05-03T09:53:09.105Z,4.37
2023-05-03T09:55:41.488Z,7.20
2023-05-03T09:58:12.271Z,8.60
2023-05-03T10:00:46.851Z,4.00
2023-05-03T10:03:25.183Z,5.40
2023-05-03T10:05:54.889Z,3.80
2023-05-03T10:08:34.760Z,4.70
2023-05-03T10:11:08.266Z,3.60
2023-05-03T10:13:37.885Z,3.70
2023-05-03T10:16:12.062Z,8.30
2023-05-03T10:18:47.434Z,3.30
2023-05-03T10:21:28.435Z,3.30
2023-05-03T10:24:14.379Z,4.00
2023-05-03T10:26:47.962Z,3.50
2023-05-03T10:29:49.950Z,3.17
2023-05-03T10:32:33.589Z,4.17
2023-05-03T10:35:06.190Z,2.80
2023-05-03T10:37:36.779Z,4.80
2023-05-03T10:40:15.916Z,3.30
2023-05-03T10:42:53.951Z,3.60
2023-05-03T10:45:26.541Z,6.57
2023-05-03T10:48:20.696Z,5.17
2023-05-03T10:50:51.661Z,3.00
2023-05-03T10:53:38.390Z,3.10
2023-05-03T10:56:09.881Z,2.93
2023-05-03T10:58:45.952Z,3.10
2023-05-03T11:01:16.915Z,4.80
2023-05-03T11:03:53.349Z,3.33
2023-05-03T11:06:34.537Z,2.30
2023-05-03T11:09:06.061Z,3.03
2023-05-03T11:11:36.906Z,2.77
2023-05-03T11:14:08.349Z,2.27
2023-05-03T11:16:40.898Z,2.20
2023-05-03T11:19:10.455Z,2.63
2023-05-03T11:21:39.576Z,2.40
2023-05-03T11:24:09.137Z,3.07
2023-05-03T11:26:39.019Z,3.37
2023-05-03T11:29:17.911Z,3.07
2023-05-03T11:31:47.032Z,2.17
2023-05-03T11:34:15.779Z,2.83
2023-05-03T11:36:44.639Z,2.77
2023-05-03T11:39:14.457Z,2.20
2023-05-03T11:41:44.622Z,3.83
2023-05-03T11:44:17.845Z,2.67
2023-05-03T11:46:49.192Z,2.47
2023-05-03T11:49:21.018Z,1.60
2023-05-03T11:51:54.406Z,2.20
2023-05-03T11:54:27.283Z,2.60
2023-05-03T11:56:59.903Z,2.03
2023-05-03T11:59:45.320Z,2.87
2023-05-03T12:02:16.196Z,2.17
2023-05-03T12:04:48.075Z,2.13
2023-05-03T12:07:19.379Z,2.40
2023-05-03T12:10:00.734Z,3.40
2023-05-03T12:12:37.285Z,2.13
2023-05-03T12:15:15.744Z,2.30
2023-05-03T12:17:49.383Z,2.73
2023-05-03T12:22:58.888Z,2.77
2023-05-03T12:25:34.064Z,2.40
2023-05-03T12:30:40.480Z,3.17
2023-05-03T12:33:10.566Z,2.20
2023-05-03T12:35:41.701Z,1.40
2023-05-03T12:38:11.022Z,1.80
2023-05-03T12:40:41.160Z,2.80
2023-05-03T12:43:10.026Z,2.27
2023-05-03T12:45:41.264Z,2.00
2023-05-03T12:48:11.840Z,1.93
2023-05-03T12:50:45.240Z,2.00
2023-05-03T12:53:16.873Z,3.10
2023-05-03T12:55:51.462Z,2.67
2023-05-03T12:58:49.962Z,4.00
2023-05-03T13:02:17.016Z,2.03
2023-05-03T13:04:45.279Z,3.13
2023-05-03T13:07:01.523Z,2.53
2023-05-03T13:10:12.476Z,2.13
2023-05-03T13:12:22.866Z,1.77
2023-05-03T13:14:55.046Z,2.73
2023-05-03T13:17:25.313Z,3.30
2023-05-03T13:19:56.155Z,1.60
2023-05-03T13:22:25.928Z,5.33
2023-05-03T13:24:54.779Z,2.20
2023-05-03T13:27:24.258Z,1.40
2023-05-03T13:29:54.297Z,3.30
2023-05-03T13:32:24.858Z,1.90
2023-05-03T13:34:54.089Z,3.23
2023-05-03T13:37:23.211Z,1.90
2023-05-03T13:39:53.857Z,1.80
2023-05-03T13:42:23.312Z,1.63
2023-05-03T13:44:51.950Z,3.37
2023-05-03T13:47:20.285Z,2.33
2023-05-03T13:49:50.320Z,2.10
2023-05-03T13:52:19.798Z,3.03
2023-05-03T13:54:50.037Z,4.50
2023-05-03T13:57:19.700Z,2.23
2023-05-03T13:59:51.261Z,1.93
2023-05-03T14:02:19.818Z,2.03
2023-05-03T14:04:50.187Z,3.43
2023-05-03T14:07:18.737Z,3.03
2023-05-03T14:09:47.393Z,2.13
2023-05-03T14:12:16.231Z,4.40
2023-05-03T14:14:45.966Z,1.80
2023-05-03T14:17:14.678Z,2.17
2023-05-03T14:19:43.717Z,2.03
2023-05-03T14:22:15.008Z,3.70
2023-05-03T14:24:44.530Z,2.80
2023-05-03T14:27:14.592Z,3.00
2023-05-03T14:29:44.846Z,3.10
2023-05-03T14:32:14.051Z,3.20
2023-05-03T14:34:43.184Z,3.10
2023-05-03T14:37:13.752Z,4.00
2023-05-03T14:39:43.137Z,4.07
2023-05-03T14:42:12.918Z,2.53
2023-05-03T14:44:41.611Z,2.00
2023-05-03T14:47:14.566Z,2.57
2023-05-03T14:49:43.946Z,3.70
2023-05-03T14:52:15.323Z,2.70
2023-05-03T14:54:46.131Z,2.90
2023-05-03T14:57:14.946Z,3.43
2023-05-03T14:59:44.187Z,2.20
2023-05-03T15:02:13.884Z,3.33
2023-05-03T15:04:45.884Z,2.43
2023-05-03T15:07:16.058Z,2.60
2023-05-03T15:09:45.787Z,2.33
2023-05-03T15:12:14.360Z,4.20
2023-05-03T15:14:44.414Z,3.67
2023-05-03T15:17:13.738Z,20.23
2023-05-03T15:19:43.864Z,3.20
2023-05-03T15:22:14.755Z,4.40
2023-05-03T15:24:46.676Z,2.30
2023-05-03T15:27:16.724Z,3.00
2023-05-03T15:29:45.718Z,4.77
2023-05-03T15:32:22.657Z,2.80
2023-05-03T15:34:51.675Z,5.17
2023-05-03T15:37:21.746Z,3.30
2023-05-03T15:39:56.971Z,3.90
2023-05-03T15:42:26.484Z,5.23
2023-05-03T15:44:55.326Z,2.57
2023-05-03T15:47:26.936Z,6.83
2023-05-03T15:49:57.900Z,7.73
2023-05-03T15:52:26.253Z,3.33
2023-05-03T15:54:56.322Z,2.40
2023-05-03T15:57:27.104Z,2.57
2023-05-03T15:59:59.659Z,2.53
2023-05-03T16:02:30.285Z,3.93
2023-05-03T16:05:01.034Z,3.40
2023-05-03T16:07:31.231Z,2.90
2023-05-03T16:10:11.434Z,4.93
2023-05-03T16:12:42.187Z,4.10
2023-05-03T16:15:15.010Z,5.20
2023-05-03T16:17:43.406Z,3.87
2023-05-03T16:20:13.106Z,3.37
2023-05-03T16:22:48.181Z,4.27
2023-05-03T16:25:21.109Z,5.67
2023-05-03T16:27:50.263Z,10.50
2023-05-03T16:30:22.934Z,3.60
2023-05-03T16:32:52.619Z,3.40
2023-05-03T16:35:22.080Z,4.17
2023-05-03T16:37:53.189Z,3.93
2023-05-03T16:40:24.436Z,3.00
2023-05-03T16:42:56.035Z,4.40
2023-05-03T16:45:24.841Z,3.73
2023-05-03T16:47:54.946Z,3.40
2023-05-03T16:50:23.908Z,4.37
2023-05-03T16:52:53.465Z,4.00
2023-05-03T16:55:27.409Z,6.93
2023-05-03T16:57:56.893Z,4.23
2023-05-03T17:00:26.335Z,4.10
2023-05-03T17:02:55.171Z,4.10
2023-05-03T17:05:26.419Z,4.70
2023-05-03T17:07:56.148Z,3.03
2023-05-03T17:10:26.782Z,2.83
2023-05-03T17:12:59.723Z,3.77
2023-05-03T17:15:29.031Z,3.00
2023-05-03T17:17:57.770Z,3.87
2023-05-03T17:20:26.771Z,2.70
2023-05-03T17:22:55.422Z,18.63
2023-05-03T17:25:25.285Z,4.73
2023-05-03T17:27:54.136Z,3.27
2023-05-03T17:30:24.252Z,3.33
2023-05-03T17:32:54.650Z,3.00
2023-05-03T17:35:26.729Z,4.20
2023-05-03T17:38:05.233Z,4.03
2023-05-03T17:40:38.484Z,4.90
2023-05-03T17:43:09.075Z,4.13
2023-05-03T17:45:37.734Z,4.57
2023-05-03T17:48:09.486Z,3.50
2023-05-03T17:50:40.413Z,8.03
2023-05-03T17:53:11.352Z,3.13
2023-05-03T17:55:42.581Z,3.80
2023-05-03T17:58:10.959Z,7.60
2023-05-03T18:00:41.761Z,16.30
2023-05-03T18:03:13.335Z,3.47
2023-05-03T18:05:43.181Z,3.30
2023-05-03T18:08:13.158Z,4.13
2023-05-03T18:10:46.338Z,2.80
2023-05-03T18:13:16.456Z,6.30
2023-05-03T18:15:45.446Z,3.67
2023-05-03T18:18:14.848Z,2.77
2023-05-03T18:20:43.686Z,11.03
2023-05-03T18:23:12.513Z,3.47
2023-05-03T18:25:43.642Z,4.40
2023-05-03T18:28:13.006Z,7.73
2023-05-03T18:30:43.077Z,5.63
2023-05-03T18:33:16.007Z,3.97
2023-05-03T18:35:52.465Z,6.23
2023-05-03T18:38:23.542Z,5.70
2023-05-03T18:40:55.607Z,3.10
2023-05-03T18:43:24.783Z,3.30
2023-05-03T18:45:54.488Z,3.10
2023-05-03T18:48:27.215Z,5.80
2023-05-03T18:51:02.441Z,5.23
2023-05-03T18:53:32.136Z,7.73
2023-05-03T18:56:03.716Z,3.37
2023-05-03T18:58:34.606Z,2.70
2023-05-03T19:01:04.830Z,7.40
2023-05-03T19:03:33.542Z,6.00
2023-05-03T19:06:04.392Z,12.37
2023-05-03T19:08:33.528Z,19.87
2023-05-03T19:11:12.705Z,16.13
2023-05-03T19:13:42.287Z,15.70
2023-05-03T19:16:11.863Z,10.80
2023-05-03T19:18:43.574Z,10.00
2023-05-03T19:21:17.118Z,10.17
2023-05-03T19:23:45.570Z,6.37
2023-05-03T19:26:15.395Z,7.43
2023-05-03T19:28:44.854Z,11.10
2023-05-03T19:31:13.605Z,12.50
2023-05-03T19:33:44.148Z,21.17
2023-05-03T19:36:15.486Z,24.17
2023-05-03T19:38:44.547Z,22.77
2023-05-03T19:41:15.171Z,17.50
2023-05-03T19:43:45.576Z,15.10
2023-05-03T19:46:17.160Z,11.97
2023-05-03T19:48:45.846Z,27.00
2023-05-03T19:51:18.224Z,22.20
2023-05-03T19:53:49.120Z,20.97
2023-05-03T19:56:21.905Z,18.50
2023-05-03T19:58:52.455Z,17.73
2023-05-03T20:01:21.013Z,13.57
2023-05-03T20:03:50.235Z,17.67
2023-05-03T20:06:20.461Z,16.40
2023-05-03T20:08:51.261Z,17.70
2023-05-03T20:11:21.462Z,17.77
2023-05-03T20:13:51.040Z,14.73
2023-05-03T20:16:21.862Z,13.10
2023-05-03T20:18:50.826Z,15.20
2023-05-03T20:21:19.538Z,19.50
2023-05-03T20:23:50.633Z,16.23
2023-05-03T20:26:20.384Z,16.53
2023-05-03T20:28:49.676Z,17.13
2023-05-03T20:31:18.548Z,15.03
2023-05-03T20:33:47.648Z,9.80
2023-05-03T20:36:15.924Z,12.10
2023-05-03T20:38:45.157Z,9.83
2023-05-03T20:41:15.487Z,12.10
2023-05-03T20:43:45.680Z,8.07
2023-05-03T20:46:20.246Z,7.07
2023-05-03T20:48:49.335Z,8.40
2023-05-03T20:51:19.471Z,9.83
2023-05-03T20:53:49.089Z,6.57
2023-05-03T20:56:18.592Z,7.33
2023-05-03T20:58:49.018Z,5.40
2023-05-03T21:01:23.046Z,5.93
2023-05-03T21:03:51.922Z,6.27
2023-05-03T21:06:20.660Z,5.07
2023-05-03T21:08:52.735Z,8.10
2023-05-03T21:11:22.226Z,4.03
2023-05-03T21:13:52.182Z,3.50
2023-05-03T21:16:21.133Z,4.03
2023-05-03T21:18:49.645Z,4.77
2023-05-03T21:21:18.636Z,4.73
2023-05-03T21:23:48.172Z,5.97
2023-05-03T21:26:17.862Z,3.77
2023-05-03T21:28:46.413Z,4.20
2023-05-03T21:31:17.094Z,3.53
2023-05-03T21:33:46.343Z,3.20
2023-05-03T21:36:15.082Z,3.83
2023-05-03T21:38:43.848Z,4.27
2023-05-03T21:41:12.546Z,4.43
2023-05-03T21:43:41.084Z,7.57
2023-05-03T21:46:10.233Z,3.87
2023-05-03T21:48:40.798Z,5.13
2023-05-03T21:51:09.990Z,3.90
2023-05-03T21:53:39.234Z,4.10
2023-05-03T21:56:08.337Z,3.60
2023-05-03T21:58:38.422Z,3.33
2023-05-03T22:01:07.740Z,4.10
2023-05-03T22:03:36.783Z,4.03
2023-05-03T22:06:08.860Z,3.30
2023-05-03T22:08:37.797Z,3.53
2023-05-03T22:11:07.500Z,6.70
2023-05-03T22:13:50.290Z,5.57
2023-05-03T22:16:23.642Z,3.97
2023-05-03T22:18:52.312Z,5.67
2023-05-03T22:21:22.237Z,4.33
2023-05-03T22:23:51.451Z,4.40
2023-05-03T22:26:20.219Z,5.50
2023-05-03T22:28:48.783Z,8.40
2023-05-03T22:31:17.790Z,3.47
2023-05-03T22:33:48.678Z,4.00
2023-05-03T22:36:17.701Z,4.77
2023-05-03T22:38:47.833Z,5.10
2023-05-03T22:41:16.711Z,5.50
2023-05-03T22:43:45.062Z,6.70
2023-05-03T22:46:13.705Z,5.07
2023-05-03T22:48:42.790Z,5.23
2023-05-03T22:51:12.035Z,6.60
2023-05-03T22:53:41.785Z,4.40
2023-05-03T22:56:12.372Z,4.70
2023-05-03T22:58:41.144Z,5.60
2023-05-03T23:01:11.890Z,5.90
2023-05-03T23:03:41.315Z,8.17
2023-05-03T23:06:10.203Z,5.70
2023-05-03T23:08:38.723Z,4.33
2023-05-03T23:11:09.663Z,6.37
2023-05-03T23:13:39.818Z,4.77
2023-05-03T23:16:09.325Z,4.20
2023-05-03T23:18:37.874Z,5.87
2023-05-03T23:21:06.239Z,5.20
2023-05-03T23:23:35.745Z,5.07
2023-05-03T23:26:04.391Z,4.50
2023-05-03T23:28:33.910Z,3.93
2023-05-03T23:31:04.543Z,4.23
2023-05-03T23:33:33.661Z,3.87
2023-05-03T23:36:02.751Z,7.50
2023-05-03T23:38:31.551Z,3.57
2023-05-03T23:41:00.397Z,4.00
2023-05-03T23:43:29.383Z,4.50
2023-05-03T23:45:58.393Z,4.57
2023-05-03T23:48:28.555Z,6.50
2023-05-03T23:50:57.079Z,3.23
2023-05-03T23:53:26.910Z,5.37
2023-05-03T23:55:55.504Z,4.60
2023-05-03T23:58:25.793Z,4.80
